.
WxDataArchive / Data Records for 2006-12-24
2006-12-23 December 2006 2006-12-25

Data Records for Sunday, 24 December 2006

Time	Temp	Chill	HIndex	Humid	Dewpt	 Wind 	HiWind	WindDir	Rain 	Barom 
-----	----	-----	------	-----	-----	------	------	-------	-----	----- 
00:00	38.6	38.6	38.6	82	33.6	2	4	248	0.00	30.006 
00:05	38.6	38.6	38.6	82	33.6	1	5	248	0.00	30.006 
00:10	38.6	38.6	38.6	83	33.9	1	4	248	0.00	30.006 
00:15	38.8	38.8	38.8	83	34.1	2	6	248	0.00	30.016 
00:20	38.8	38.8	38.8	83	34.1	2	6	270	0.00	30.016 
00:25	38.8	38.8	38.8	83	34.1	2	9	270	0.00	30.016 
00:30	38.8	38.8	38.8	84	34.4	2	6	248	0.00	30.017 
00:35	38.8	38.8	38.8	84	34.4	3	9	270	0.00	30.017 
00:40	38.8	38.8	38.8	84	34.4	3	9	248	0.00	30.017 
00:45	38.8	38.8	38.8	84	34.4	3	9	248	0.00	30.016 
00:50	38.8	38.8	38.8	84	34.4	2	4	270	0.00	30.016 
00:55	38.8	38.8	38.8	84	34.4	3	7	270	0.00	30.016 
01:00	38.8	38.8	38.8	84	34.4	2	5	248	0.00	30.017 
01:05	38.8	38.8	38.8	84	34.4	1	3	248	0.00	30.017 
01:10	38.8	38.8	38.8	84	34.4	2	5	248	0.00	30.017 
01:15	38.8	38.8	38.8	84	34.4	2	5	270	0.00	30.029 
01:20	38.8	38.8	38.8	85	34.7	2	5	270	0.00	30.029 
01:25	38.8	38.8	38.8	85	34.7	2	5	248	0.00	30.029 
01:30	38.6	38.6	38.6	85	34.5	2	5	248	0.00	30.037 
01:35	38.6	38.6	38.6	84	34.2	2	5	248	0.00	30.037 
01:40	38.8	38.8	38.8	84	34.4	2	6	248	0.00	30.037 
01:45	38.8	38.8	38.8	83	34.1	2	7	270	0.00	30.046 
01:50	38.8	35.9	38.8	82	33.8	4	10	270	0.00	30.046 
01:55	38.8	38.8	38.8	81	33.5	2	7	270	0.00	30.046 
02:00	38.8	38.8	38.8	81	33.5	2	5	270	0.00	30.052 
02:05	38.8	38.8	38.8	81	33.5	2	5	270	0.00	30.052 
02:10	38.8	38.8	38.8	82	33.8	2	5	270	0.00	30.052 
02:15	38.6	38.6	38.6	82	33.6	2	4	270	0.00	30.064 
02:20	38.6	38.6	38.6	82	33.6	1	4	270	0.00	30.064 
02:25	38.6	38.6	38.6	82	33.6	2	6	270	0.00	30.064 
02:30	38.6	38.6	38.6	82	33.6	2	4	270	0.00	30.075 
02:35	38.6	38.6	38.6	82	33.6	3	6	270	0.00	30.075 
02:40	38.5	38.5	38.5	82	33.5	1	4	270	0.00	30.075 
02:45	38.5	38.5	38.5	82	33.5	2	4	270	0.00	30.078 
02:50	38.3	38.3	38.3	82	33.3	2	9	248	0.00	30.078 
02:55	38.3	38.3	38.3	83	33.6	2	5	248	0.00	30.078 
03:00	38.3	38.3	38.3	83	33.6	2	9	270	0.00	30.090 
03:05	38.2	38.2	38.2	83	33.5	2	5	270	0.00	30.090 
03:10	38.2	38.2	38.2	83	33.5	2	6	292	0.00	30.090 
03:15	38.2	38.2	38.2	84	33.8	2	5	270	0.00	30.095 
03:20	38.0	38.0	38.0	85	33.9	1	3	270	0.00	30.095 
03:25	37.9	37.9	37.9	86	34.1	1	4	248	0.00	30.095 
03:30	37.8	37.8	37.8	86	34.0	1	3	292	0.00	30.098 
03:35	37.8	37.8	37.8	86	34.0	1	4	270	0.00	30.098 
03:40	37.8	37.8	37.8	86	34.0	1	3	270	0.00	30.098 
03:45	37.8	37.8	37.8	86	34.0	2	4	248	0.00	30.094 
03:50	37.8	37.8	37.8	86	34.0	2	5	270	0.00	30.094 
03:55	37.6	37.6	37.6	86	33.8	2	4	248	0.00	30.094 
04:00	37.5	37.5	37.5	86	33.7	1	4	270	0.00	30.107 
04:05	37.5	37.5	37.5	86	33.7	1	5	248	0.00	30.107 
04:10	37.5	37.5	37.5	86	33.7	1	4	270	0.00	30.107 
04:15	37.5	37.5	37.5	86	33.7	1	4	270	0.00	30.112 
04:20	37.6	37.6	37.6	86	33.8	1	3	248	0.00	30.112 
04:25	37.6	37.6	37.6	86	33.8	0	3	270	0.00	30.112 
04:30	37.6	37.6	37.6	85	33.5	1	3	270	0.00	30.112 
04:35	37.6	37.6	37.6	85	33.5	1	3	270	0.00	30.112 
04:40	37.6	37.6	37.6	84	33.2	1	4	270	0.00	30.112 
04:45	37.6	37.6	37.6	84	33.2	0	2	270	0.00	30.094 
04:50	37.6	37.6	37.6	84	33.2	0	2	292	0.00	30.094 
04:55	37.5	37.5	37.5	83	32.8	0	3	292	0.00	30.094 
05:00	37.5	37.5	37.5	83	32.8	1	6	270	0.00	30.094 
05:05	37.5	37.5	37.5	83	32.8	1	4	270	0.00	30.094 
05:10	37.6	37.6	37.6	83	32.9	1	3	270	0.00	30.094 
05:15	37.6	37.6	37.6	82	32.6	0	1	270	0.00	30.096 
05:20	37.5	37.5	37.5	82	32.5	1	3	338	0.00	30.096 
05:25	37.5	37.5	37.5	81	32.2	1	3	292	0.00	30.096 
05:30	37.3	37.3	37.3	81	32.0	1	2	315	0.00	30.097 
05:35	37.2	37.2	37.2	81	31.9	1	2	315	0.00	30.097 
05:40	37.0	37.0	37.0	82	32.0	0	2	292	0.00	30.097 
05:45	36.9	36.9	36.9	82	31.9	0	4	338	0.00	30.098 
05:50	36.8	36.8	36.8	82	31.8	0	1	338	0.00	30.098 
05:55	36.6	36.6	36.6	83	31.9	0	1	338	0.00	30.098 
06:00	36.5	36.5	36.5	83	31.8	0	1	338	0.00	30.091 
06:05	36.3	36.3	36.3	83	31.6	0	1	338	0.00	30.091 
06:10	36.3	36.3	36.3	84	31.9	0	1	338	0.00	30.091 
06:15	36.2	36.2	36.2	84	31.8	0	1	338	0.00	30.106 
06:20	36.2	36.2	36.2	84	31.8	0	1	338	0.00	30.106 
06:25	36.2	36.2	36.2	84	31.8	0	1	338	0.00	30.106 
06:30	36.2	36.2	36.2	84	31.8	0	1	338	0.00	30.114 
06:35	36.2	36.2	36.2	84	31.8	0	0	---	0.00	30.114 
06:40	36.2	36.2	36.2	84	31.8	0	1	338	0.00	30.114 
06:45	36.3	36.3	36.3	84	31.9	0	1	338	0.00	30.114 
06:50	36.5	36.5	36.5	84	32.1	0	2	338	0.00	30.114 
06:55	36.5	36.5	36.5	84	32.1	0	1	338	0.00	30.114 
07:00	36.6	36.6	36.6	84	32.2	1	2	248	0.00	30.129 
07:05	36.6	36.6	36.6	83	31.9	0	1	248	0.00	30.129 
07:10	36.6	36.6	36.6	83	31.9	0	1	248	0.00	30.129 
07:15	36.6	36.6	36.6	83	31.9	0	1	248	0.00	30.134 
07:20	36.6	36.6	36.6	83	31.9	0	2	248	0.00	30.134 
07:25	36.6	36.6	36.6	83	31.9	0	2	248	0.00	30.134 
07:30	36.6	36.6	36.6	83	31.9	0	1	248	0.00	30.147 
07:35	36.6	36.6	36.6	83	31.9	1	3	248	0.00	30.147 
07:40	36.6	36.6	36.6	83	31.9	1	3	248	0.00	30.147 
07:45	36.6	36.6	36.6	83	31.9	1	3	248	0.00	30.157 
07:50	36.6	36.6	36.6	82	31.6	1	4	248	0.00	30.157 
07:55	36.6	36.6	36.6	82	31.6	1	3	248	0.00	30.157 
08:00	36.6	36.6	36.6	83	31.9	1	3	248	0.00	30.160 
08:05	36.6	36.6	36.6	83	31.9	1	4	248	0.00	30.160 
08:10	36.6	36.6	36.6	83	31.9	1	4	270	0.00	30.160 
08:15	36.6	36.6	36.6	82	31.6	1	6	248	0.00	30.175 
08:20	36.6	36.6	36.6	82	31.6	2	4	248	0.00	30.175 
08:25	36.6	36.6	36.6	82	31.6	2	10	248	0.00	30.175 
08:30	36.6	36.6	36.6	82	31.6	2	4	248	0.00	30.195 
08:35	36.6	36.6	36.6	82	31.6	1	5	248	0.00	30.195 
08:40	36.6	36.6	36.6	82	31.6	1	4	248	0.00	30.195 
08:45	36.6	36.6	36.6	82	31.6	1	3	248	0.00	30.206 
08:50	36.6	36.6	36.6	81	31.3	2	7	248	0.00	30.206 
08:55	36.6	36.6	36.6	81	31.3	1	5	248	0.00	30.206 
09:00	36.6	36.6	36.6	81	31.3	3	7	248	0.00	30.224 
09:05	36.6	33.4	36.6	81	31.3	4	13	270	0.00	30.224 
09:10	36.5	33.3	36.5	81	31.2	4	13	270	0.00	30.224 
09:15	36.5	36.5	36.5	81	31.2	3	7	270	0.00	30.232 
09:20	36.5	36.5	36.5	81	31.2	2	6	270	0.00	30.232 
09:25	36.6	36.6	36.6	82	31.6	2	4	270	0.00	30.232 
09:30	36.6	36.6	36.6	81	31.3	2	6	248	0.00	30.238 
09:35	36.6	36.6	36.6	81	31.3	2	7	270	0.00	30.238 
09:40	36.6	36.6	36.6	81	31.3	2	7	248	0.00	30.238 
09:45	36.8	36.8	36.8	81	31.5	1	3	292	0.00	30.231 
09:50	36.9	36.9	36.9	81	31.6	1	3	270	0.00	30.231 
09:55	37.0	37.0	37.0	80	31.4	1	4	270	0.00	30.231 
10:00	37.2	37.2	37.2	80	31.6	1	5	248	0.00	30.240 
10:05	37.2	37.2	37.2	79	31.3	2	4	270	0.00	30.240 
10:10	37.2	37.2	37.2	80	31.6	1	4	248	0.00	30.240 
10:15	37.3	37.3	37.3	80	31.7	2	5	248	0.00	30.247 
10:20	37.6	37.6	37.6	80	32.0	2	5	248	0.00	30.247 
10:25	37.8	37.8	37.8	79	31.9	1	4	270	0.00	30.247 
10:30	37.8	37.8	37.8	79	31.9	1	3	315	0.00	30.257 
10:35	38.0	38.0	38.0	79	32.1	1	3	248	0.00	30.257 
10:40	38.5	38.5	38.5	79	32.6	0	2	225	0.00	30.257 
10:45	38.8	38.8	38.8	77	32.2	1	4	338	0.00	30.249 
10:50	38.6	38.6	38.6	77	32.0	1	3	270	0.00	30.249 
10:55	38.6	38.6	38.6	77	32.0	0	2	270	0.00	30.249 
11:00	38.8	38.8	38.8	77	32.2	1	2	338	0.00	30.238 
11:05	38.9	38.9	38.9	77	32.3	1	4	292	0.00	30.238 
11:10	38.9	38.9	38.9	77	32.3	1	3	270	0.00	30.238 
11:15	39.2	39.2	39.2	77	32.6	0	3	338	0.00	30.237 
11:20	39.3	39.3	39.3	76	32.4	1	2	338	0.00	30.237 
11:25	39.3	39.3	39.3	75	32.0	1	3	315	0.00	30.237 
11:30	39.5	39.5	39.5	75	32.2	0	1	315	0.00	30.229 
11:35	39.6	39.6	39.6	75	32.3	0	2	315	0.00	30.229 
11:40	39.6	39.6	39.6	75	32.3	0	1	315	0.00	30.229 
11:45	39.8	39.8	39.8	76	32.9	0	2	315	0.00	30.221 
11:50	39.8	39.8	39.8	75	32.5	0	1	315	0.00	30.221 
11:55	39.9	39.9	39.9	74	32.3	0	2	315	0.00	30.221 
12:00	40.1	40.1	40.1	75	32.8	0	2	315	0.00	30.221 
12:05	40.2	40.2	40.2	75	32.9	0	3	248	0.00	30.221 
12:10	40.3	40.3	40.3	75	33.0	0	1	248	0.00	30.221 
12:15	40.5	40.5	40.5	74	32.9	0	2	270	0.00	30.204 
12:20	40.5	40.5	40.5	74	32.9	0	1	270	0.00	30.204 
12:25	40.6	40.6	40.6	73	32.6	0	2	270	0.00	30.204 
12:30	40.8	40.8	40.8	73	32.8	1	3	112	0.00	30.192 
12:35	40.8	40.8	40.8	72	32.5	1	3	112	0.00	30.192 
12:40	40.8	40.8	40.8	73	32.8	1	2	112	0.00	30.192 
12:45	40.9	40.9	40.9	73	32.9	1	3	112	0.00	30.187 
12:50	41.1	41.1	41.1	72	32.8	1	2	112	0.00	30.187 
12:55	41.2	41.2	41.2	71	32.5	1	3	112	0.00	30.187 
13:00	41.3	41.3	41.3	71	32.6	1	2	112	0.00	30.190 
13:05	41.6	41.6	41.6	71	32.9	0	2	112	0.00	30.190 
13:10	41.9	41.9	41.9	71	33.2	1	4	112	0.00	30.190 
13:15	42.3	42.3	42.3	71	33.6	0	1	112	0.00	30.195 
13:20	42.5	42.5	42.5	70	33.4	1	2	135	0.00	30.195 
13:25	42.6	42.6	42.6	69	33.2	1	3	270	0.00	30.195 
13:30	42.8	42.8	42.8	69	33.3	1	3	45	0.00	30.191 
13:35	43.1	43.1	43.1	69	33.6	0	2	90	0.00	30.191 
13:40	43.3	43.3	43.3	69	33.8	1	3	270	0.00	30.191 
13:45	43.5	43.5	43.5	68	33.7	0	2	270	0.00	30.186 
13:50	43.5	43.5	43.5	67	33.3	0	2	270	0.00	30.186 
13:55	43.8	43.8	43.8	68	33.9	1	3	270	0.00	30.186 
14:00	43.8	43.8	43.8	67	33.6	1	3	270	0.00	30.189 
14:05	43.8	43.8	43.8	68	33.9	1	3	112	0.00	30.189 
14:10	43.9	43.9	43.9	68	34.0	1	3	270	0.00	30.189 
14:15	44.1	44.1	44.1	66	33.5	0	3	248	0.00	30.186 
14:20	44.2	44.2	44.2	66	33.6	1	3	248	0.00	30.186 
14:25	44.2	44.2	44.2	66	33.6	1	3	90	0.00	30.186 
14:30	44.2	44.2	44.2	65	33.2	0	2	90	0.00	30.185 
14:35	44.2	44.2	44.2	65	33.2	0	2	90	0.00	30.185 
14:40	44.5	44.5	44.5	67	34.2	1	2	90	0.00	30.185 
14:45	44.5	44.5	44.5	67	34.2	0	1	45	0.00	30.186 
14:50	44.8	44.8	44.8	65	33.8	1	4	248	0.00	30.186 
14:55	44.9	44.9	44.9	66	34.2	1	3	248	0.00	30.186 
15:00	44.9	44.9	44.9	66	34.2	1	3	90	0.00	30.187 
15:05	44.9	44.9	44.9	66	34.2	1	3	90	0.00	30.187 
15:10	44.8	44.8	44.8	68	34.9	1	3	90	0.00	30.187 
15:15	44.8	44.8	44.8	68	34.9	1	4	270	0.00	30.188 
15:20	44.6	44.6	44.6	69	35.1	1	3	248	0.00	30.188 
15:25	44.6	44.6	44.6	69	35.1	0	2	270	0.00	30.188 
15:30	44.5	44.5	44.5	68	34.6	1	3	270	0.00	30.188 
15:35	44.6	44.6	44.6	69	35.1	1	3	248	0.00	30.188 
15:40	44.8	44.8	44.8	69	35.3	1	4	248	0.00	30.188 
15:45	44.8	44.8	44.8	68	34.9	2	5	248	0.00	30.196 
15:50	44.5	44.5	44.5	70	35.3	0	2	270	0.00	30.196 
15:55	44.1	44.1	44.1	70	35.0	1	4	270	0.00	30.196 
16:00	43.8	43.8	43.8	70	34.7	1	3	135	0.00	30.192 
16:05	43.5	43.5	43.5	70	34.4	1	4	112	0.00	30.192 
16:10	43.5	43.5	43.5	70	34.4	0	2	112	0.00	30.192 
16:15	43.3	43.3	43.3	71	34.5	0	1	112	0.00	30.185 
16:20	43.2	43.2	43.2	69	33.7	1	2	112	0.00	30.185 
16:25	43.2	43.2	43.2	70	34.1	0	1	112	0.00	30.185 
16:30	43.1	43.1	43.1	71	34.3	0	1	112	0.00	30.190 
16:35	42.9	42.9	42.9	72	34.5	0	2	112	0.00	30.190 
16:40	42.6	42.6	42.6	72	34.2	0	2	270	0.00	30.190 
16:45	42.3	42.3	42.3	72	33.9	0	1	270	0.00	30.191 
16:50	42.2	42.2	42.2	73	34.2	0	2	270	0.00	30.191 
16:55	42.1	42.1	42.1	73	34.1	0	2	270	0.00	30.191 
17:00	41.8	41.8	41.8	73	33.8	0	0	---	0.00	30.186 
17:05	41.5	41.5	41.5	74	33.8	0	0	---	0.00	30.186 
17:10	41.1	41.1	41.1	74	33.5	0	0	---	0.00	30.186 
17:15	40.5	40.5	40.5	76	33.5	0	0	---	0.00	30.188 
17:20	39.9	39.9	39.9	76	33.0	0	0	---	0.00	30.188 
17:25	39.5	39.5	39.5	78	33.2	0	0	---	0.00	30.188 
17:30	38.9	38.9	38.9	79	33.0	0	0	---	0.00	30.191 
17:35	38.3	38.3	38.3	80	32.7	0	0	---	0.00	30.191 
17:40	37.9	37.9	37.9	81	32.6	0	1	270	0.00	30.191 
17:45	37.5	37.5	37.5	82	32.5	0	0	---	0.00	30.193 
17:50	37.0	37.0	37.0	83	32.3	0	0	---	0.00	30.193 
17:55	36.6	36.6	36.6	83	31.9	0	0	---	0.00	30.193 
18:00	36.3	36.3	36.3	84	31.9	0	0	---	0.00	30.203 
18:05	36.2	36.2	36.2	85	32.1	0	0	---	0.00	30.203 
18:10	35.9	35.9	35.9	85	31.8	0	0	---	0.00	30.203 
18:15	35.6	35.6	35.6	86	31.8	0	0	---	0.00	30.210 
18:20	35.3	35.3	35.3	86	31.5	0	0	---	0.00	30.210 
18:25	35.0	35.0	35.0	86	31.2	0	0	---	0.00	30.210 
18:30	34.7	34.7	34.7	87	31.2	0	0	---	0.00	30.212 
18:35	34.4	34.4	34.4	88	31.2	0	0	---	0.00	30.212 
18:40	34.3	34.3	34.3	88	31.1	0	0	---	0.00	30.212 
18:45	34.1	34.1	34.1	89	31.2	0	0	---	0.00	30.219 
18:50	34.0	34.0	34.0	89	31.1	0	0	---	0.00	30.219 
18:55	33.8	33.8	33.8	89	30.9	0	0	---	0.00	30.219 
19:00	33.5	33.5	33.5	89	30.6	0	0	---	0.00	30.228 
19:05	33.4	33.4	33.4	90	30.8	0	0	---	0.00	30.228 
19:10	33.1	33.1	33.1	90	30.5	0	0	---	0.00	30.228 
19:15	32.9	32.9	32.9	90	30.3	0	0	---	0.00	30.226 
19:20	32.9	32.9	32.9	91	30.6	0	0	---	0.00	30.226 
19:25	32.9	32.9	32.9	91	30.6	0	0	---	0.00	30.226 
19:30	32.8	32.8	32.8	91	30.5	0	0	---	0.00	30.218 
19:35	32.7	32.7	32.7	91	30.4	0	0	---	0.00	30.218 
19:40	32.5	32.5	32.5	91	30.2	0	0	---	0.00	30.218 
19:45	32.4	32.4	32.4	92	30.3	0	0	---	0.00	30.216 
19:50	32.2	32.2	32.2	92	30.1	0	0	---	0.00	30.216 
19:55	32.1	32.1	32.1	92	30.0	0	0	---	0.00	30.216 
20:00	31.8	31.8	31.8	92	29.7	0	0	---	0.00	30.214 
20:05	31.6	31.6	31.6	92	29.5	0	0	---	0.00	30.214 
20:10	31.6	31.6	31.6	92	29.5	0	0	---	0.00	30.214 
20:15	31.8	31.8	31.8	92	29.7	0	0	---	0.00	30.209 
20:20	31.6	31.6	31.6	92	29.5	0	0	---	0.00	30.209 
20:25	31.6	31.6	31.6	93	29.8	0	0	---	0.00	30.209 
20:30	31.6	31.6	31.6	93	29.8	0	0	---	0.00	30.207 
20:35	31.6	31.6	31.6	93	29.8	0	0	---	0.00	30.207 
20:40	31.5	31.5	31.5	93	29.7	0	0	---	0.00	30.207 
20:45	31.5	31.5	31.5	93	29.7	0	0	---	0.00	30.212 
20:50	31.3	31.3	31.3	93	29.5	0	0	---	0.00	30.212 
20:55	31.3	31.3	31.3	93	29.5	0	0	---	0.00	30.212 
21:00	31.2	31.2	31.2	93	29.4	0	0	---	0.00	30.202 
21:05	31.2	31.2	31.2	93	29.4	0	0	---	0.00	30.202 
21:10	31.0	31.0	31.0	93	29.2	0	0	---	0.00	30.202 
21:15	30.9	30.9	30.9	93	29.1	0	0	---	0.00	30.193 
21:20	30.9	30.9	30.9	93	29.1	0	0	---	0.00	30.193 
21:25	30.9	30.9	30.9	94	29.4	0	0	---	0.00	30.193 
21:30	30.7	30.7	30.7	94	29.2	0	0	---	0.00	30.186 
21:35	30.7	30.7	30.7	94	29.2	0	0	---	0.00	30.186 
21:40	30.7	30.7	30.7	94	29.2	0	0	---	0.00	30.186 
21:45	30.7	30.7	30.7	94	29.2	0	0	---	0.00	30.189 
21:50	30.7	30.7	30.7	94	29.2	0	0	---	0.00	30.189 
21:55	30.6	30.6	30.6	94	29.1	0	0	---	0.00	30.189 
22:00	30.6	30.6	30.6	94	29.1	0	0	---	0.00	30.194 
22:05	30.4	30.4	30.4	94	28.9	0	0	---	0.00	30.194 
22:10	30.4	30.4	30.4	94	28.9	0	0	---	0.00	30.194 
22:15	30.4	30.4	30.4	94	28.9	0	0	---	0.00	30.185 
22:20	30.3	30.3	30.3	94	28.8	0	0	---	0.00	30.185 
22:25	30.3	30.3	30.3	94	28.8	0	0	---	0.00	30.185 
22:30	30.3	30.3	30.3	95	29.0	0	0	---	0.00	30.179 
22:35	30.3	30.3	30.3	95	29.0	0	0	---	0.00	30.179 
22:40	30.1	30.1	30.1	95	28.8	0	0	---	0.00	30.179 
22:45	30.1	30.1	30.1	95	28.8	0	0	---	0.00	30.173 
22:50	30.0	30.0	30.0	95	28.7	0	0	---	0.00	30.173 
22:55	30.0	30.0	30.0	95	28.7	0	0	---	0.00	30.173 
23:00	30.1	30.1	30.1	95	28.8	0	0	---	0.00	30.176 
23:05	30.1	30.1	30.1	95	28.8	0	0	---	0.00	30.176 
23:10	30.0	30.0	30.0	95	28.7	0	0	---	0.00	30.176 
23:15	30.0	30.0	30.0	95	28.7	0	0	---	0.00	30.178 
23:20	30.0	30.0	30.0	95	28.7	0	0	---	0.00	30.178 
23:25	30.0	30.0	30.0	95	28.7	0	0	---	0.00	30.178 
23:30	30.0	30.0	30.0	95	28.7	0	0	---	0.00	30.168 
23:35	30.0	30.0	30.0	95	28.7	0	0	---	0.00	30.168 
23:40	30.0	30.0	30.0	95	28.7	0	0	---	0.00	30.168 
23:45	30.1	30.1	30.1	95	28.8	0	0	---	0.00	30.162 
23:50	30.1	30.1	30.1	95	28.8	0	0	---	0.00	30.162 
23:55	30.1	30.1	30.1	95	28.8	0	0	---	0.00	30.162 

CoCoRaHS
IN-AL-39
A2 Web Hosting
Creative Commons License
GoDaddy
Look for:

loaded 2017-12-12 16:45:10 • last modified 2010-11-18 10:43:29
Privacy PolicyDisclaimer
• wx.awcolley.com is powered by PmWiki v.2002016 •
• all content (unless otherwise noted) © 2017 A W Colley